createdAt,value
2023-01-20T00:01:12.227Z,93.51
2023-01-20T00:03:39.784Z,93.33
2023-01-20T00:06:07.048Z,93.24
2023-01-20T00:08:33.384Z,92.77
2023-01-20T00:11:04.413Z,92.22
2023-01-20T00:13:31.008Z,91.35
2023-01-20T00:15:57.335Z,91.91
2023-01-20T00:18:23.693Z,91.70
2023-01-20T00:20:50.013Z,90.79
2023-01-20T00:23:16.357Z,91.05
2023-01-20T00:25:42.650Z,91.29
2023-01-20T00:28:08.979Z,92.60
2023-01-20T00:30:35.553Z,94.93
2023-01-20T00:33:01.950Z,93.92
2023-01-20T00:35:28.347Z,93.49
2023-01-20T00:37:54.654Z,95.15
2023-01-20T00:40:20.987Z,93.47
2023-01-20T00:42:47.342Z,93.62
2023-01-20T00:45:14.080Z,93.45
2023-01-20T00:47:40.505Z,92.06
2023-01-20T00:50:07.179Z,91.34
2023-01-20T00:52:33.509Z,91.12
2023-01-20T00:54:59.786Z,92.87
2023-01-20T00:57:26.096Z,92.69
2023-01-20T00:59:52.450Z,91.85
2023-01-20T01:02:18.819Z,92.31
2023-01-20T01:04:49.568Z,92.54
2023-01-20T01:07:16.274Z,91.98
2023-01-20T01:09:42.562Z,92.00
2023-01-20T01:12:08.998Z,91.63
2023-01-20T01:14:35.294Z,91.15
2023-01-20T01:17:01.611Z,91.90
2023-01-20T01:19:27.918Z,92.67
2023-01-20T01:21:54.258Z,91.29
2023-01-20T01:24:20.638Z,91.38
2023-01-20T01:26:46.970Z,92.46
2023-01-20T01:29:13.330Z,93.39
2023-01-20T01:31:39.798Z,93.27
2023-01-20T01:34:06.117Z,93.51
2023-01-20T01:36:32.438Z,92.35
2023-01-20T01:38:59.296Z,93.29
2023-01-20T01:41:26.380Z,93.00
2023-01-20T01:44:11.215Z,94.20
2023-01-20T01:46:38.526Z,93.94
2023-01-20T01:49:13.940Z,93.09
2023-01-20T01:51:48.144Z,92.21
2023-01-20T01:54:18.466Z,91.44
2023-01-20T01:56:46.275Z,92.43
2023-01-20T01:59:14.957Z,92.16
2023-01-20T02:01:46.775Z,92.83
2023-01-20T02:04:15.830Z,91.43
2023-01-20T02:06:48.542Z,91.85
2023-01-20T02:09:14.947Z,92.27
2023-01-20T02:11:48.376Z,91.29
2023-01-20T02:14:21.557Z,93.07
2023-01-20T02:16:57.207Z,92.04
2023-01-20T02:19:35.915Z,91.41
2023-01-20T02:22:17.793Z,90.91
2023-01-20T02:25:18.145Z,90.05
2023-01-20T02:27:54.455Z,90.02
2023-01-20T02:30:54.215Z,90.58
2023-01-20T02:33:30.279Z,90.10
2023-01-20T02:36:26.290Z,90.38
2023-01-20T02:39:00.920Z,91.10
2023-01-20T02:41:39.046Z,91.75
2023-01-20T02:44:17.833Z,92.62
2023-01-20T02:46:56.243Z,94.30
2023-01-20T02:49:36.108Z,94.36
2023-01-20T02:52:27.097Z,94.43
2023-01-20T02:54:56.902Z,95.95
2023-01-20T02:57:32.707Z,94.38
2023-01-20T03:00:06.788Z,94.14
2023-01-20T03:02:36.710Z,93.73
2023-01-20T03:05:17.375Z,92.98
2023-01-20T03:07:45.761Z,92.63
2023-01-20T03:10:16.310Z,92.67
2023-01-20T03:12:50.442Z,94.48
2023-01-20T03:15:23.897Z,93.82
2023-01-20T03:17:50.483Z,93.10
2023-01-20T03:20:17.163Z,93.60
2023-01-20T03:22:43.527Z,92.74
2023-01-20T03:25:12.805Z,92.39
2023-01-20T03:27:39.270Z,92.64
2023-01-20T03:30:12.355Z,92.76
2023-01-20T03:32:39.478Z,91.52
2023-01-20T03:35:06.013Z,90.74
2023-01-20T03:37:32.356Z,91.38
2023-01-20T03:39:58.743Z,91.57
2023-01-20T03:42:31.565Z,91.98
2023-01-20T03:45:08.650Z,91.90
2023-01-20T03:48:12.830Z,92.92
2023-01-20T03:51:10.298Z,92.76
2023-01-20T03:53:45.771Z,91.96
2023-01-20T03:56:12.022Z,92.59
2023-01-20T03:58:43.234Z,93.28
2023-01-20T04:01:17.902Z,93.53
2023-01-20T04:03:48.577Z,92.28
2023-01-20T04:06:18.387Z,91.95
2023-01-20T04:08:50.639Z,91.51
2023-01-20T04:11:17.022Z,92.92
2023-01-20T04:13:43.424Z,93.75
2023-01-20T04:16:15.536Z,93.45
2023-01-20T04:18:45.229Z,93.48
2023-01-20T04:21:19.219Z,93.88
2023-01-20T04:23:56.637Z,95.16
2023-01-20T04:26:22.940Z,94.18
2023-01-20T04:28:49.222Z,93.76
2023-01-20T04:31:29.578Z,94.96
2023-01-20T04:33:57.039Z,95.02
2023-01-20T04:36:23.433Z,94.45
2023-01-20T04:38:49.710Z,93.63
2023-01-20T04:41:15.990Z,93.36
2023-01-20T04:43:45.859Z,94.69
2023-01-20T04:46:13.041Z,93.38
2023-01-20T04:48:39.624Z,93.56
2023-01-20T04:51:07.160Z,95.76
2023-01-20T04:53:34.555Z,97.08
2023-01-20T04:56:00.862Z,96.11
2023-01-20T04:58:27.176Z,95.27
2023-01-20T05:00:53.554Z,96.00
2023-01-20T05:03:19.904Z,97.54
2023-01-20T05:05:55.398Z,98.48
2023-01-20T05:08:21.987Z,99.17
2023-01-20T05:10:48.399Z,99.59
2023-01-20T05:13:14.699Z,98.05
2023-01-20T05:15:42.415Z,97.80
2023-01-20T05:18:08.775Z,97.32
2023-01-20T05:20:35.189Z,98.14
2023-01-20T05:23:01.649Z,97.69
2023-01-20T05:25:28.148Z,97.63
2023-01-20T05:27:54.482Z,95.69
2023-01-20T05:30:21.168Z,97.24
2023-01-20T05:32:51.821Z,98.69
2023-01-20T05:35:18.291Z,98.08
2023-01-20T05:37:44.661Z,98.10
2023-01-20T05:40:11.519Z,97.63
2023-01-20T05:42:37.857Z,98.55
2023-01-20T05:45:04.669Z,98.18
2023-01-20T05:47:30.999Z,99.21
2023-01-20T05:49:57.320Z,100.00
2023-01-20T05:52:23.772Z,100.00
2023-01-20T05:54:50.114Z,99.41
2023-01-20T05:57:18.169Z,100.00
2023-01-20T05:59:47.444Z,100.00
2023-01-20T06:02:18.473Z,100.00
2023-01-20T06:04:46.067Z,100.00
2023-01-20T06:07:12.533Z,100.00
2023-01-20T06:09:38.888Z,100.00
2023-01-20T06:12:05.421Z,100.00
2023-01-20T06:14:31.737Z,100.00
2023-01-20T06:16:58.141Z,99.77
2023-01-20T06:19:24.450Z,100.00
2023-01-20T06:21:50.824Z,100.00
2023-01-20T06:24:17.173Z,100.00
2023-01-20T06:26:43.475Z,98.85
2023-01-20T06:29:09.788Z,100.00
2023-01-20T06:31:36.160Z,100.00
2023-01-20T06:34:02.513Z,97.93
2023-01-20T06:36:28.818Z,97.35
2023-01-20T06:38:55.168Z,99.52
2023-01-20T06:41:21.745Z,98.23
2023-01-20T06:43:50.015Z,96.43
2023-01-20T06:46:16.871Z,97.02
2023-01-20T06:48:44.743Z,97.43
2023-01-20T06:51:19.801Z,97.58
2023-01-20T06:53:46.514Z,96.71
2023-01-20T06:56:14.780Z,96.13
2023-01-20T06:58:42.165Z,96.63
2023-01-20T07:01:12.147Z,100.00
2023-01-20T07:03:38.801Z,100.00
2023-01-20T07:06:14.172Z,99.17
2023-01-20T07:08:40.491Z,100.00
2023-01-20T07:11:06.807Z,100.00
2023-01-20T07:13:33.106Z,100.00
2023-01-20T07:15:59.438Z,100.00
2023-01-20T07:18:25.807Z,100.00
2023-01-20T07:20:55.900Z,100.00
2023-01-20T07:23:23.474Z,100.00
2023-01-20T07:26:08.057Z,100.00
2023-01-20T07:28:35.735Z,100.00
2023-01-20T07:31:06.394Z,100.00
2023-01-20T07:33:33.499Z,100.00
2023-01-20T07:36:00.287Z,100.00
2023-01-20T07:38:26.653Z,100.00
2023-01-20T07:40:52.962Z,100.00
2023-01-20T07:43:19.266Z,100.00
2023-01-20T07:45:45.650Z,100.00
2023-01-20T07:48:11.976Z,100.00
2023-01-20T07:50:38.351Z,100.00
2023-01-20T07:53:04.898Z,100.00
2023-01-20T07:55:31.314Z,100.00
2023-01-20T07:57:58.630Z,100.00
2023-01-20T08:00:25.226Z,100.00
2023-01-20T08:02:51.515Z,100.00
2023-01-20T08:05:17.821Z,100.00
2023-01-20T08:07:44.299Z,100.00
2023-01-20T08:10:10.698Z,100.00
2023-01-20T08:12:37.047Z,100.00
2023-01-20T08:15:03.688Z,100.00
2023-01-20T08:17:29.980Z,100.00
2023-01-20T08:19:56.261Z,100.00
2023-01-20T08:22:22.695Z,100.00
2023-01-20T08:24:48.981Z,100.00
2023-01-20T08:27:15.382Z,100.00
2023-01-20T08:29:41.690Z,100.00
2023-01-20T08:32:07.985Z,100.00
2023-01-20T08:34:34.687Z,100.00
2023-01-20T08:37:01.002Z,100.00
2023-01-20T08:39:27.372Z,100.00
2023-01-20T08:41:53.837Z,100.00
2023-01-20T08:44:21.133Z,100.00
2023-01-20T08:46:47.546Z,100.00
2023-01-20T08:49:16.819Z,100.00
2023-01-20T08:51:44.813Z,100.00
2023-01-20T08:54:11.245Z,100.00
2023-01-20T08:56:37.625Z,100.00
2023-01-20T08:59:04.432Z,100.00
2023-01-20T09:01:37.735Z,100.00
2023-01-20T09:04:06.801Z,100.00
2023-01-20T09:06:39.263Z,100.00
2023-01-20T09:09:05.636Z,100.00
2023-01-20T09:11:32.075Z,100.00
2023-01-20T09:13:58.499Z,100.00
2023-01-20T09:16:24.846Z,100.00
2023-01-20T09:18:51.170Z,100.00
2023-01-20T09:21:17.523Z,100.00
2023-01-20T09:23:43.902Z,100.00
2023-01-20T09:26:10.321Z,100.00
2023-01-20T09:28:36.681Z,100.00
2023-01-20T09:31:08.602Z,100.00
2023-01-20T09:33:39.281Z,100.00
2023-01-20T09:36:08.437Z,100.00
2023-01-20T09:38:53.597Z,100.00
2023-01-20T09:41:45.931Z,100.00
2023-01-20T09:44:24.375Z,100.00
2023-01-20T09:47:23.144Z,100.00
2023-01-20T09:50:35.739Z,100.00
2023-01-20T09:53:17.055Z,100.00
2023-01-20T09:55:46.447Z,100.00
2023-01-20T09:58:41.420Z,100.00
2023-01-20T10:01:21.612Z,100.00
2023-01-20T10:03:56.040Z,100.00
2023-01-20T10:06:33.294Z,100.00
2023-01-20T10:09:06.443Z,100.00
2023-01-20T10:11:38.220Z,100.00
2023-01-20T10:14:38.504Z,100.00
2023-01-20T10:17:22.131Z,100.00
2023-01-20T10:20:03.738Z,100.00
2023-01-20T10:22:40.808Z,100.00
2023-01-20T10:25:18.461Z,100.00
2023-01-20T10:28:31.245Z,100.00
2023-01-20T10:31:01.570Z,100.00
2023-01-20T10:33:33.809Z,100.00
2023-01-20T10:36:00.374Z,99.77
2023-01-20T10:38:39.879Z,99.17
2023-01-20T10:41:19.621Z,98.72
2023-01-20T10:43:47.845Z,98.35
2023-01-20T10:46:26.565Z,96.14
2023-01-20T10:49:04.795Z,96.51
2023-01-20T10:51:43.409Z,95.96
2023-01-20T10:54:39.640Z,95.70
2023-01-20T10:57:12.296Z,94.91
2023-01-20T10:59:51.434Z,94.17
2023-01-20T11:02:24.524Z,89.78
2023-01-20T11:04:58.766Z,85.60
2023-01-20T11:07:26.694Z,84.14
2023-01-20T11:09:53.287Z,80.86
2023-01-20T11:12:27.498Z,75.31
2023-01-20T11:14:55.630Z,74.99
2023-01-20T11:17:22.242Z,73.79
2023-01-20T11:19:57.012Z,69.83
2023-01-20T11:22:35.504Z,69.22
2023-01-20T11:25:04.929Z,68.07
2023-01-20T11:27:43.884Z,64.08
2023-01-20T11:30:28.366Z,63.76
2023-01-20T11:33:24.154Z,65.05
2023-01-20T11:36:16.286Z,64.10
2023-01-20T11:38:45.538Z,64.99
2023-01-20T11:41:29.470Z,63.53
2023-01-20T11:43:58.849Z,62.42
2023-01-20T11:46:36.270Z,62.31
2023-01-20T11:49:21.924Z,62.97
2023-01-20T11:51:54.408Z,63.84
2023-01-20T11:54:26.343Z,63.31
2023-01-20T11:57:01.561Z,63.14
2023-01-20T11:59:30.242Z,64.42
2023-01-20T12:02:08.921Z,63.69
2023-01-20T12:05:10.712Z,62.46
2023-01-20T12:07:45.332Z,63.88
2023-01-20T12:10:28.241Z,63.67
2023-01-20T12:12:59.944Z,67.12
2023-01-20T12:15:31.210Z,69.24
2023-01-20T12:18:04.200Z,71.95
2023-01-20T12:21:07.872Z,73.75
2023-01-20T12:24:01.535Z,75.31
2023-01-20T12:26:29.481Z,75.46
2023-01-20T12:29:24.396Z,75.70
2023-01-20T12:31:50.898Z,75.96
2023-01-20T12:34:27.512Z,76.07
2023-01-20T12:37:16.926Z,76.44
2023-01-20T12:40:03.982Z,76.06
2023-01-20T12:42:36.211Z,75.87
2023-01-20T12:45:28.543Z,74.94
2023-01-20T12:48:18.614Z,75.09
2023-01-20T12:51:03.362Z,75.39
2023-01-20T12:54:01.313Z,76.27
2023-01-20T12:56:53.276Z,75.92
2023-01-20T12:59:38.032Z,74.51
2023-01-20T13:02:16.453Z,76.02
2023-01-20T13:05:10.322Z,76.61
2023-01-20T13:07:52.249Z,76.52
2023-01-20T13:10:42.119Z,77.27
2023-01-20T13:13:18.316Z,77.46
2023-01-20T13:16:26.535Z,77.71
2023-01-20T13:19:04.330Z,76.67
2023-01-20T13:21:32.337Z,76.40
2023-01-20T13:24:01.411Z,76.28
2023-01-20T13:26:30.624Z,75.83
2023-01-20T13:29:00.271Z,76.29
2023-01-20T13:31:52.812Z,77.07
2023-01-20T13:34:22.187Z,76.33
2023-01-20T13:37:22.350Z,76.93
2023-01-20T13:39:50.339Z,77.51
2023-01-20T13:42:38.320Z,78.88
2023-01-20T13:45:14.430Z,79.14
2023-01-20T13:47:52.341Z,78.98
2023-01-20T13:50:31.130Z,78.38
2023-01-20T13:52:57.515Z,78.83
2023-01-20T13:55:45.529Z,79.45
2023-01-20T13:58:21.868Z,79.10
2023-01-20T14:00:50.424Z,80.33
2023-01-20T14:03:19.755Z,79.40
2023-01-20T14:05:51.441Z,80.00
2023-01-20T14:08:19.095Z,79.94
2023-01-20T14:10:45.599Z,80.77
2023-01-20T14:13:18.593Z,80.62
2023-01-20T14:15:52.669Z,81.64
2023-01-20T14:18:21.647Z,82.91
2023-01-20T14:21:17.287Z,84.29
2023-01-20T14:23:46.143Z,84.41
2023-01-20T14:26:19.798Z,84.86
2023-01-20T14:28:49.324Z,85.21
2023-01-20T14:31:28.824Z,86.33
2023-01-20T14:33:55.234Z,86.10
2023-01-20T14:36:22.992Z,86.17
2023-01-20T14:38:58.903Z,86.88
2023-01-20T14:41:47.561Z,86.67
2023-01-20T14:44:20.387Z,87.09
2023-01-20T14:46:48.920Z,87.53
2023-01-20T14:49:17.643Z,86.82
2023-01-20T14:51:46.499Z,87.38
2023-01-20T14:54:32.106Z,86.34
2023-01-20T14:56:59.542Z,86.02
2023-01-20T14:59:26.587Z,85.77
2023-01-20T15:01:55.242Z,85.71
2023-01-20T15:04:22.040Z,86.26
2023-01-20T15:06:53.555Z,86.18
2023-01-20T15:09:31.855Z,85.30
2023-01-20T15:12:35.527Z,85.88
2023-01-20T15:15:30.586Z,85.96
2023-01-20T15:18:17.962Z,87.97
2023-01-20T15:20:47.416Z,86.56
2023-01-20T15:23:20.675Z,86.65
2023-01-20T15:25:48.913Z,86.33
2023-01-20T15:28:42.778Z,86.66
2023-01-20T15:31:13.956Z,87.79
2023-01-20T15:33:40.683Z,86.81
2023-01-20T15:36:20.785Z,87.32
2023-01-20T15:38:47.583Z,88.67
2023-01-20T15:41:14.104Z,89.04
2023-01-20T15:43:45.395Z,90.12
2023-01-20T15:46:16.913Z,90.08
2023-01-20T15:48:44.696Z,89.13
2023-01-20T15:51:16.610Z,88.48
2023-01-20T15:53:43.678Z,89.22
2023-01-20T15:56:30.238Z,90.13
2023-01-20T15:58:57.478Z,91.27
2023-01-20T16:01:25.827Z,91.93
2023-01-20T16:03:54.802Z,93.36
2023-01-20T16:06:26.539Z,95.14
2023-01-20T16:08:52.896Z,95.56
2023-01-20T16:11:19.760Z,95.75
2023-01-20T16:13:46.754Z,97.43
2023-01-20T16:16:16.135Z,96.85
2023-01-20T16:18:42.763Z,96.93
2023-01-20T16:21:13.996Z,98.41
2023-01-20T16:23:40.739Z,98.77
2023-01-20T16:26:22.372Z,100.00
2023-01-20T16:28:50.101Z,99.87
2023-01-20T16:31:16.736Z,100.00
2023-01-20T16:33:43.419Z,100.00
2023-01-20T16:36:18.042Z,100.00
2023-01-20T16:38:45.013Z,100.00
2023-01-20T16:41:31.601Z,100.00
2023-01-20T16:43:58.435Z,100.00
2023-01-20T16:46:27.592Z,100.00
2023-01-20T16:49:01.687Z,100.00
2023-01-20T16:51:29.471Z,100.00
2023-01-20T16:53:57.083Z,100.00
2023-01-20T16:56:26.206Z,100.00
2023-01-20T16:58:54.066Z,100.00
2023-01-20T17:01:24.322Z,100.00
2023-01-20T17:03:53.196Z,100.00
2023-01-20T17:06:25.111Z,100.00
2023-01-20T17:08:54.345Z,100.00
2023-01-20T17:11:40.956Z,100.00
2023-01-20T17:14:09.480Z,100.00
2023-01-20T17:16:36.341Z,100.00
2023-01-20T17:19:02.921Z,100.00
2023-01-20T17:21:30.981Z,100.00
2023-01-20T17:24:00.369Z,100.00
2023-01-20T17:26:27.734Z,100.00
2023-01-20T17:29:01.949Z,100.00
2023-01-20T17:31:28.466Z,100.00
2023-01-20T17:33:54.832Z,100.00
2023-01-20T17:36:21.133Z,100.00
2023-01-20T17:38:47.459Z,100.00
2023-01-20T17:41:14.655Z,100.00
2023-01-20T17:43:46.309Z,100.00
2023-01-20T17:46:12.872Z,100.00
2023-01-20T17:48:39.218Z,100.00
2023-01-20T17:51:14.138Z,100.00
2023-01-20T17:53:41.230Z,100.00
2023-01-20T17:56:12.865Z,100.00
2023-01-20T17:58:40.902Z,100.00
2023-01-20T18:01:15.062Z,100.00
2023-01-20T18:03:43.203Z,100.00
2023-01-20T18:06:15.457Z,100.00
2023-01-20T18:08:42.509Z,100.00
2023-01-20T18:11:19.032Z,100.00
2023-01-20T18:13:46.477Z,100.00
2023-01-20T18:16:15.197Z,100.00
2023-01-20T18:18:43.879Z,100.00
2023-01-20T18:21:21.602Z,100.00
2023-01-20T18:23:49.184Z,100.00
2023-01-20T18:26:17.731Z,100.00
2023-01-20T18:28:47.723Z,100.00
2023-01-20T18:31:18.117Z,100.00
2023-01-20T18:33:47.979Z,100.00
2023-01-20T18:36:17.663Z,100.00
2023-01-20T18:38:52.157Z,100.00
2023-01-20T18:41:19.285Z,100.00
2023-01-20T18:43:46.484Z,100.00
2023-01-20T18:46:12.986Z,100.00
2023-01-20T18:48:47.166Z,100.00
2023-01-20T18:51:15.973Z,100.00
2023-01-20T18:53:45.040Z,100.00
2023-01-20T18:56:15.121Z,100.00
2023-01-20T18:58:46.836Z,100.00
2023-01-20T19:01:19.660Z,100.00
2023-01-20T19:03:47.146Z,100.00
2023-01-20T19:06:16.420Z,100.00
2023-01-20T19:08:44.742Z,100.00
2023-01-20T19:11:17.609Z,100.00
2023-01-20T19:13:45.237Z,100.00
2023-01-20T19:16:12.941Z,100.00
2023-01-20T19:18:40.926Z,100.00
2023-01-20T19:21:09.817Z,100.00
2023-01-20T19:23:36.541Z,100.00
2023-01-20T19:26:05.269Z,100.00
2023-01-20T19:28:31.620Z,100.00
2023-01-20T19:31:05.591Z,100.00
2023-01-20T19:33:32.853Z,100.00
2023-01-20T19:36:00.656Z,100.00
2023-01-20T19:38:27.074Z,100.00
2023-01-20T19:40:53.631Z,100.00
2023-01-20T19:43:20.436Z,100.00
2023-01-20T19:45:47.005Z,100.00
2023-01-20T19:48:13.345Z,100.00
2023-01-20T19:50:39.932Z,100.00
2023-01-20T19:53:06.346Z,100.00
2023-01-20T19:55:32.653Z,100.00
2023-01-20T19:57:59.044Z,100.00
2023-01-20T20:00:25.351Z,100.00
2023-01-20T20:02:54.836Z,100.00
2023-01-20T20:05:21.326Z,100.00
2023-01-20T20:07:47.646Z,100.00
2023-01-20T20:10:17.468Z,100.00
2023-01-20T20:12:44.098Z,100.00
2023-01-20T20:15:10.826Z,100.00
2023-01-20T20:17:37.141Z,100.00
2023-01-20T20:20:03.572Z,100.00
2023-01-20T20:22:29.855Z,100.00
2023-01-20T20:24:56.167Z,100.00
2023-01-20T20:27:22.533Z,100.00
2023-01-20T20:29:48.840Z,100.00
2023-01-20T20:32:16.528Z,100.00
2023-01-20T20:34:42.860Z,100.00
2023-01-20T20:37:09.146Z,100.00
2023-01-20T20:39:36.095Z,100.00
2023-01-20T20:42:02.410Z,100.00
2023-01-20T20:44:28.771Z,100.00
2023-01-20T20:46:55.085Z,100.00
2023-01-20T20:49:21.423Z,100.00
2023-01-20T20:51:47.765Z,100.00
2023-01-20T20:54:16.709Z,100.00
2023-01-20T20:56:43.810Z,100.00
2023-01-20T20:59:10.695Z,100.00
2023-01-20T21:01:37.151Z,100.00
2023-01-20T21:04:04.337Z,100.00
2023-01-20T21:06:31.905Z,100.00
2023-01-20T21:09:01.191Z,100.00
2023-01-20T21:11:27.875Z,100.00
2023-01-20T21:13:54.691Z,100.00
2023-01-20T21:16:22.903Z,100.00
2023-01-20T21:18:51.010Z,100.00
2023-01-20T21:21:19.080Z,100.00
2023-01-20T21:23:50.688Z,100.00
2023-01-20T21:26:17.345Z,100.00
2023-01-20T21:28:44.300Z,100.00
2023-01-20T21:31:13.682Z,100.00
2023-01-20T21:33:41.507Z,100.00
2023-01-20T21:36:09.647Z,100.00
2023-01-20T21:38:37.325Z,100.00
2023-01-20T21:41:09.742Z,100.00
2023-01-20T21:43:56.732Z,100.00
2023-01-20T21:46:24.276Z,100.00
2023-01-20T21:49:09.045Z,100.00
2023-01-20T21:51:53.888Z,100.00
2023-01-20T21:54:20.360Z,100.00
2023-01-20T21:56:47.983Z,100.00
2023-01-20T21:59:14.542Z,100.00
2023-01-20T22:01:41.123Z,100.00
2023-01-20T22:04:07.633Z,100.00
2023-01-20T22:06:33.980Z,100.00
2023-01-20T22:09:00.345Z,100.00
2023-01-20T22:11:26.905Z,100.00
2023-01-20T22:13:56.733Z,100.00
2023-01-20T22:16:24.451Z,100.00
2023-01-20T22:18:51.726Z,100.00
2023-01-20T22:21:19.174Z,100.00
2023-01-20T22:23:45.517Z,100.00
2023-01-20T22:26:11.985Z,100.00
2023-01-20T22:28:39.656Z,100.00
2023-01-20T22:31:14.650Z,100.00
2023-01-20T22:33:40.970Z,100.00
2023-01-20T22:36:07.497Z,100.00
2023-01-20T22:38:34.045Z,100.00
2023-01-20T22:41:08.601Z,100.00
2023-01-20T22:43:37.617Z,100.00
2023-01-20T22:46:04.911Z,100.00
2023-01-20T22:48:34.539Z,100.00
2023-01-20T22:51:06.420Z,100.00
2023-01-20T22:53:33.688Z,100.00
2023-01-20T22:56:04.005Z,100.00
2023-01-20T22:58:31.213Z,100.00
2023-01-20T23:00:57.961Z,100.00
2023-01-20T23:03:24.408Z,100.00
2023-01-20T23:05:58.472Z,100.00
2023-01-20T23:08:27.487Z,100.00
2023-01-20T23:10:56.254Z,100.00
2023-01-20T23:13:23.489Z,100.00
2023-01-20T23:15:51.172Z,100.00
2023-01-20T23:18:18.880Z,100.00
2023-01-20T23:20:49.465Z,100.00
2023-01-20T23:23:16.974Z,100.00
2023-01-20T23:25:43.324Z,100.00
2023-01-20T23:28:09.986Z,100.00
2023-01-20T23:30:36.596Z,100.00
2023-01-20T23:33:03.253Z,100.00
2023-01-20T23:35:29.612Z,100.00
2023-01-20T23:37:55.945Z,100.00
2023-01-20T23:40:22.867Z,100.00
2023-01-20T23:42:50.251Z,100.00
2023-01-20T23:45:16.603Z,100.00
2023-01-20T23:47:43.004Z,100.00
2023-01-20T23:50:10.057Z,100.00
2023-01-20T23:52:36.541Z,100.00
2023-01-20T23:55:02.979Z,100.00
2023-01-20T23:57:29.370Z,100.00
2023-01-20T23:59:55.778Z,100.00
